sensor_id;sensor_type;location;lat;lon;timestamp;temperature;humidity
47162;DHT22;32921;53.256;8.198;2023-04-24T00:01:39;11.20;99.90
47162;DHT22;32921;53.256;8.198;2023-04-24T00:04:05;11.20;99.90
47162;DHT22;32921;53.256;8.198;2023-04-24T00:06:32;11.20;99.90
47162;DHT22;32921;53.256;8.198;2023-04-24T00:09:00;11.20;99.90
47162;DHT22;32921;53.256;8.198;2023-04-24T00:11:26;11.20;99.90
47162;DHT22;32921;53.256;8.198;2023-04-24T00:13:52;11.10;99.90
47162;DHT22;32921;53.256;8.198;2023-04-24T00:16:17;11.10;99.90
47162;DHT22;32921;53.256;8.198;2023-04-24T00:18:43;11.10;99.90
47162;DHT22;32921;53.256;8.198;2023-04-24T00:21:10;11.10;99.90
47162;DHT22;32921;53.256;8.198;2023-04-24T00:23:36;11.00;99.90
47162;DHT22;32921;53.256;8.198;2023-04-24T00:26:01;10.80;99.90
47162;DHT22;32921;53.256;8.198;2023-04-24T00:28:27;10.70;99.90
47162;DHT22;32921;53.256;8.198;2023-04-24T00:30:53;10.60;99.90
47162;DHT22;32921;53.256;8.198;2023-04-24T00:33:18;10.50;99.90
47162;DHT22;32921;53.256;8.198;2023-04-24T00:35:44;10.50;99.90
47162;DHT22;32921;53.256;8.198;2023-04-24T00:38:10;10.40;99.90
47162;DHT22;32921;53.256;8.198;2023-04-24T00:40:35;10.40;99.90
47162;DHT22;32921;53.256;8.198;2023-04-24T00:43:01;10.30;99.90
47162;DHT22;32921;53.256;8.198;2023-04-24T00:45:27;10.20;99.90
47162;DHT22;32921;53.256;8.198;2023-04-24T00:47:53;10.20;99.90
47162;DHT22;32921;53.256;8.198;2023-04-24T00:50:18;10.20;99.90
47162;DHT22;32921;53.256;8.198;2023-04-24T00:52:46;10.10;99.90
47162;DHT22;32921;53.256;8.198;2023-04-24T00:55:12;10.10;99.90
47162;DHT22;32921;53.256;8.198;2023-04-24T00:57:38;10.20;99.90
47162;DHT22;32921;53.256;8.198;2023-04-24T01:00:35;10.20;99.90
47162;DHT22;32921;53.256;8.198;2023-04-24T01:03:04;10.20;99.90
47162;DHT22;32921;53.256;8.198;2023-04-24T01:05:30;10.20;99.90
47162;DHT22;32921;53.256;8.198;2023-04-24T01:07:56;10.20;99.90
47162;DHT22;32921;53.256;8.198;2023-04-24T01:10:23;10.20;99.90
47162;DHT22;32921;53.256;8.198;2023-04-24T01:12:50;10.20;99.90
47162;DHT22;32921;53.256;8.198;2023-04-24T01:15:16;10.20;99.90
47162;DHT22;32921;53.256;8.198;2023-04-24T01:17:41;10.20;99.90
47162;DHT22;32921;53.256;8.198;2023-04-24T01:20:07;10.20;99.90
47162;DHT22;32921;53.256;8.198;2023-04-24T01:22:34;10.20;99.90
47162;DHT22;32921;53.256;8.198;2023-04-24T01:25:00;10.20;99.90
47162;DHT22;32921;53.256;8.198;2023-04-24T01:27:25;10.10;99.90
47162;DHT22;32921;53.256;8.198;2023-04-24T01:29:51;10.10;99.90
47162;DHT22;32921;53.256;8.198;2023-04-24T01:32:17;10.10;99.90
47162;DHT22;32921;53.256;8.198;2023-04-24T01:34:44;10.10;99.90
47162;DHT22;32921;53.256;8.198;2023-04-24T01:37:10;10.10;99.90
47162;DHT22;32921;53.256;8.198;2023-04-24T01:39:35;10.10;99.90
47162;DHT22;32921;53.256;8.198;2023-04-24T01:42:01;10.10;99.90
47162;DHT22;32921;53.256;8.198;2023-04-24T01:44:27;10.10;99.90
47162;DHT22;32921;53.256;8.198;2023-04-24T01:46:55;10.10;99.90
47162;DHT22;32921;53.256;8.198;2023-04-24T01:49:21;10.10;99.90
47162;DHT22;32921;53.256;8.198;2023-04-24T01:51:47;10.10;99.90
47162;DHT22;32921;53.256;8.198;2023-04-24T01:54:12;10.20;99.90
47162;DHT22;32921;53.256;8.198;2023-04-24T01:56:41;10.10;99.90
47162;DHT22;32921;53.256;8.198;2023-04-24T01:59:10;10.10;99.90
47162;DHT22;32921;53.256;8.198;2023-04-24T02:01:37;10.10;99.90
47162;DHT22;32921;53.256;8.198;2023-04-24T02:04:03;10.10;99.90
47162;DHT22;32921;53.256;8.198;2023-04-24T02:06:29;10.10;99.90
47162;DHT22;32921;53.256;8.198;2023-04-24T02:08:57;10.10;99.90
47162;DHT22;32921;53.256;8.198;2023-04-24T02:11:23;10.00;99.90
47162;DHT22;32921;53.256;8.198;2023-04-24T02:13:48;10.10;99.90
47162;DHT22;32921;53.256;8.198;2023-04-24T02:16:14;10.10;99.90
47162;DHT22;32921;53.256;8.198;2023-04-24T02:18:39;10.10;99.90
47162;DHT22;32921;53.256;8.198;2023-04-24T02:21:05;10.20;99.90
47162;DHT22;32921;53.256;8.198;2023-04-24T02:23:30;10.20;99.90
47162;DHT22;32921;53.256;8.198;2023-04-24T02:25:56;10.20;99.90
47162;DHT22;32921;53.256;8.198;2023-04-24T02:28:21;10.30;99.90
47162;DHT22;32921;53.256;8.198;2023-04-24T02:30:47;10.30;99.90
47162;DHT22;32921;53.256;8.198;2023-04-24T02:33:12;10.30;99.90
47162;DHT22;32921;53.256;8.198;2023-04-24T02:35:38;10.30;99.90
47162;DHT22;32921;53.256;8.198;2023-04-24T02:38:04;10.30;99.90
47162;DHT22;32921;53.256;8.198;2023-04-24T02:40:30;10.30;99.90
47162;DHT22;32921;53.256;8.198;2023-04-24T02:42:55;10.30;99.90
47162;DHT22;32921;53.256;8.198;2023-04-24T02:45:21;10.30;99.90
47162;DHT22;32921;53.256;8.198;2023-04-24T02:47:46;10.30;99.90
47162;DHT22;32921;53.256;8.198;2023-04-24T02:50:12;10.30;99.90
47162;DHT22;32921;53.256;8.198;2023-04-24T02:52:37;10.20;99.90
47162;DHT22;32921;53.256;8.198;2023-04-24T02:55:03;10.10;99.90
47162;DHT22;32921;53.256;8.198;2023-04-24T02:57:29;9.90;99.90
47162;DHT22;32921;53.256;8.198;2023-04-24T02:59:55;9.80;99.90
47162;DHT22;32921;53.256;8.198;2023-04-24T03:02:20;9.80;99.90
47162;DHT22;32921;53.256;8.198;2023-04-24T03:04:46;9.80;99.90
47162;DHT22;32921;53.256;8.198;2023-04-24T03:07:13;9.80;99.90
47162;DHT22;32921;53.256;8.198;2023-04-24T03:09:40;9.80;99.90
47162;DHT22;32921;53.256;8.198;2023-04-24T03:12:05;9.70;99.90
47162;DHT22;32921;53.256;8.198;2023-04-24T03:14:31;9.70;99.90
47162;DHT22;32921;53.256;8.198;2023-04-24T03:16:57;9.80;99.90
47162;DHT22;32921;53.256;8.198;2023-04-24T03:19:22;9.80;99.90
47162;DHT22;32921;53.256;8.198;2023-04-24T03:21:48;9.80;99.90
47162;DHT22;32921;53.256;8.198;2023-04-24T03:24:14;9.90;99.90
47162;DHT22;32921;53.256;8.198;2023-04-24T03:26:39;9.80;99.90
47162;DHT22;32921;53.256;8.198;2023-04-24T03:29:05;9.90;99.90
47162;DHT22;32921;53.256;8.198;2023-04-24T03:31:30;9.90;99.90
47162;DHT22;32921;53.256;8.198;2023-04-24T03:33:56;9.90;99.90
47162;DHT22;32921;53.256;8.198;2023-04-24T03:36:21;9.90;99.90
47162;DHT22;32921;53.256;8.198;2023-04-24T03:38:47;9.90;99.90
47162;DHT22;32921;53.256;8.198;2023-04-24T03:41:13;9.90;99.90
47162;DHT22;32921;53.256;8.198;2023-04-24T03:43:39;9.90;99.90
47162;DHT22;32921;53.256;8.198;2023-04-24T03:46:04;9.90;99.90
47162;DHT22;32921;53.256;8.198;2023-04-24T03:48:30;10.00;99.90
47162;DHT22;32921;53.256;8.198;2023-04-24T03:50:55;10.00;99.90
47162;DHT22;32921;53.256;8.198;2023-04-24T03:53:21;10.00;99.90
47162;DHT22;32921;53.256;8.198;2023-04-24T03:55:47;10.00;99.90
47162;DHT22;32921;53.256;8.198;2023-04-24T03:58:13;10.00;99.90
47162;DHT22;32921;53.256;8.198;2023-04-24T04:00:41;10.00;99.90
47162;DHT22;32921;53.256;8.198;2023-04-24T04:03:07;10.00;99.90
47162;DHT22;32921;53.256;8.198;2023-04-24T04:05:32;10.10;99.90
47162;DHT22;32921;53.256;8.198;2023-04-24T04:07:58;10.10;99.90
47162;DHT22;32921;53.256;8.198;2023-04-24T04:10:23;10.10;99.90
47162;DHT22;32921;53.256;8.198;2023-04-24T04:12:49;10.10;99.90
47162;DHT22;32921;53.256;8.198;2023-04-24T04:15:14;10.10;99.90
47162;DHT22;32921;53.256;8.198;2023-04-24T04:17:40;10.10;99.90
47162;DHT22;32921;53.256;8.198;2023-04-24T04:20:06;10.10;99.90
47162;DHT22;32921;53.256;8.198;2023-04-24T04:22:38;10.10;99.90
47162;DHT22;32921;53.256;8.198;2023-04-24T04:25:04;10.10;99.90
47162;DHT22;32921;53.256;8.198;2023-04-24T04:27:30;10.10;99.90
47162;DHT22;32921;53.256;8.198;2023-04-24T04:29:58;10.20;99.90
47162;DHT22;32921;53.256;8.198;2023-04-24T04:32:26;10.10;99.90
47162;DHT22;32921;53.256;8.198;2023-04-24T04:34:52;10.20;99.90
47162;DHT22;32921;53.256;8.198;2023-04-24T04:37:18;10.20;99.90
47162;DHT22;32921;53.256;8.198;2023-04-24T04:39:44;10.20;99.90
47162;DHT22;32921;53.256;8.198;2023-04-24T04:42:10;10.20;99.90
47162;DHT22;32921;53.256;8.198;2023-04-24T04:44:35;10.20;99.90
47162;DHT22;32921;53.256;8.198;2023-04-24T04:47:02;10.20;99.90
47162;DHT22;32921;53.256;8.198;2023-04-24T04:49:29;10.30;99.90
47162;DHT22;32921;53.256;8.198;2023-04-24T04:51:56;10.20;99.90
47162;DHT22;32921;53.256;8.198;2023-04-24T04:54:21;10.20;99.90
47162;DHT22;32921;53.256;8.198;2023-04-24T04:56:50;10.30;99.90
47162;DHT22;32921;53.256;8.198;2023-04-24T04:59:15;10.30;99.90
47162;DHT22;32921;53.256;8.198;2023-04-24T05:01:41;10.30;99.90
47162;DHT22;32921;53.256;8.198;2023-04-24T05:04:07;10.30;99.90
47162;DHT22;32921;53.256;8.198;2023-04-24T05:06:32;10.30;99.90
47162;DHT22;32921;53.256;8.198;2023-04-24T05:08:58;10.30;99.90
47162;DHT22;32921;53.256;8.198;2023-04-24T05:11:23;10.20;99.90
47162;DHT22;32921;53.256;8.198;2023-04-24T05:13:49;10.10;99.90
47162;DHT22;32921;53.256;8.198;2023-04-24T05:16:14;10.10;99.90
47162;DHT22;32921;53.256;8.198;2023-04-24T05:18:41;10.10;99.90
47162;DHT22;32921;53.256;8.198;2023-04-24T05:21:06;10.00;99.90
47162;DHT22;32921;53.256;8.198;2023-04-24T05:23:32;10.00;99.90
47162;DHT22;32921;53.256;8.198;2023-04-24T05:25:57;10.00;99.90
47162;DHT22;32921;53.256;8.198;2023-04-24T05:28:23;10.10;99.90
47162;DHT22;32921;53.256;8.198;2023-04-24T05:30:48;10.10;99.90
47162;DHT22;32921;53.256;8.198;2023-04-24T05:33:14;10.10;99.90
47162;DHT22;32921;53.256;8.198;2023-04-24T05:35:40;10.20;99.90
47162;DHT22;32921;53.256;8.198;2023-04-24T05:38:11;10.20;99.90
47162;DHT22;32921;53.256;8.198;2023-04-24T05:40:36;10.10;99.90
47162;DHT22;32921;53.256;8.198;2023-04-24T05:43:02;10.20;99.90
47162;DHT22;32921;53.256;8.198;2023-04-24T05:45:27;10.10;99.90
47162;DHT22;32921;53.256;8.198;2023-04-24T05:47:53;10.10;99.90
47162;DHT22;32921;53.256;8.198;2023-04-24T05:50:19;10.10;99.90
47162;DHT22;32921;53.256;8.198;2023-04-24T05:52:44;10.10;99.90
47162;DHT22;32921;53.256;8.198;2023-04-24T05:55:10;10.20;99.90
47162;DHT22;32921;53.256;8.198;2023-04-24T05:57:35;10.20;99.90
47162;DHT22;32921;53.256;8.198;2023-04-24T06:00:01;10.30;99.90
47162;DHT22;32921;53.256;8.198;2023-04-24T06:02:27;10.30;99.90
47162;DHT22;32921;53.256;8.198;2023-04-24T06:04:52;10.30;99.90
47162;DHT22;32921;53.256;8.198;2023-04-24T06:07:18;10.30;99.90
47162;DHT22;32921;53.256;8.198;2023-04-24T06:09:44;10.40;99.90
47162;DHT22;32921;53.256;8.198;2023-04-24T06:12:09;10.30;99.90
47162;DHT22;32921;53.256;8.198;2023-04-24T06:14:35;10.40;99.90
47162;DHT22;32921;53.256;8.198;2023-04-24T06:17:00;10.40;99.90
47162;DHT22;32921;53.256;8.198;2023-04-24T06:19:26;10.50;99.90
47162;DHT22;32921;53.256;8.198;2023-04-24T06:21:51;10.50;99.90
47162;DHT22;32921;53.256;8.198;2023-04-24T06:24:17;10.70;99.90
47162;DHT22;32921;53.256;8.198;2023-04-24T06:26:42;10.90;99.90
47162;DHT22;32921;53.256;8.198;2023-04-24T06:29:08;10.90;99.90
47162;DHT22;32921;53.256;8.198;2023-04-24T06:31:33;11.10;99.90
47162;DHT22;32921;53.256;8.198;2023-04-24T06:34:03;11.10;99.90
47162;DHT22;32921;53.256;8.198;2023-04-24T06:36:28;11.20;99.90
47162;DHT22;32921;53.256;8.198;2023-04-24T06:38:54;11.20;99.90
47162;DHT22;32921;53.256;8.198;2023-04-24T06:41:20;11.10;99.90
47162;DHT22;32921;53.256;8.198;2023-04-24T06:43:45;11.00;99.90
47162;DHT22;32921;53.256;8.198;2023-04-24T06:46:11;11.10;99.90
47162;DHT22;32921;53.256;8.198;2023-04-24T06:48:37;11.20;99.90
47162;DHT22;32921;53.256;8.198;2023-04-24T06:51:03;11.50;99.90
47162;DHT22;32921;53.256;8.198;2023-04-24T06:53:28;12.00;99.90
47162;DHT22;32921;53.256;8.198;2023-04-24T06:55:54;12.30;99.90
47162;DHT22;32921;53.256;8.198;2023-04-24T06:58:20;12.40;99.90
47162;DHT22;32921;53.256;8.198;2023-04-24T07:00:45;12.40;99.90
47162;DHT22;32921;53.256;8.198;2023-04-24T07:03:11;12.50;99.90
47162;DHT22;32921;53.256;8.198;2023-04-24T07:05:37;12.40;99.90
47162;DHT22;32921;53.256;8.198;2023-04-24T07:08:03;12.30;99.90
47162;DHT22;32921;53.256;8.198;2023-04-24T07:10:29;12.20;99.90
47162;DHT22;32921;53.256;8.198;2023-04-24T07:12:55;12.70;99.90
47162;DHT22;32921;53.256;8.198;2023-04-24T07:15:22;13.20;99.90
47162;DHT22;32921;53.256;8.198;2023-04-24T07:17:48;13.50;99.90
47162;DHT22;32921;53.256;8.198;2023-04-24T07:20:14;14.00;99.90
47162;DHT22;32921;53.256;8.198;2023-04-24T07:22:40;14.00;99.90
47162;DHT22;32921;53.256;8.198;2023-04-24T07:25:07;13.70;99.90
47162;DHT22;32921;53.256;8.198;2023-04-24T07:27:34;13.20;99.90
47162;DHT22;32921;53.256;8.198;2023-04-24T07:30:02;12.60;99.90
47162;DHT22;32921;53.256;8.198;2023-04-24T07:32:29;12.30;99.90
47162;DHT22;32921;53.256;8.198;2023-04-24T07:34:55;11.80;99.90
47162;DHT22;32921;53.256;8.198;2023-04-24T07:37:20;11.70;99.90
47162;DHT22;32921;53.256;8.198;2023-04-24T07:39:46;11.50;99.90
47162;DHT22;32921;53.256;8.198;2023-04-24T07:42:12;11.30;99.90
47162;DHT22;32921;53.256;8.198;2023-04-24T07:44:37;11.20;99.90
47162;DHT22;32921;53.256;8.198;2023-04-24T07:47:03;11.10;99.90
47162;DHT22;32921;53.256;8.198;2023-04-24T07:49:28;11.10;99.90
47162;DHT22;32921;53.256;8.198;2023-04-24T07:51:54;11.10;99.90
47162;DHT22;32921;53.256;8.198;2023-04-24T07:54:20;11.20;99.90
47162;DHT22;32921;53.256;8.198;2023-04-24T07:56:46;11.10;99.90
47162;DHT22;32921;53.256;8.198;2023-04-24T07:59:11;10.90;99.90
47162;DHT22;32921;53.256;8.198;2023-04-24T08:01:37;10.90;99.90
47162;DHT22;32921;53.256;8.198;2023-04-24T08:04:03;11.00;99.90
47162;DHT22;32921;53.256;8.198;2023-04-24T08:06:29;11.30;99.90
47162;DHT22;32921;53.256;8.198;2023-04-24T08:08:59;11.50;99.90
47162;DHT22;32921;53.256;8.198;2023-04-24T08:11:25;11.80;99.90
47162;DHT22;32921;53.256;8.198;2023-04-24T08:13:51;12.20;99.90
47162;DHT22;32921;53.256;8.198;2023-04-24T08:16:16;12.40;99.90
47162;DHT22;32921;53.256;8.198;2023-04-24T08:18:42;12.50;99.90
47162;DHT22;32921;53.256;8.198;2023-04-24T08:21:08;12.40;99.90
47162;DHT22;32921;53.256;8.198;2023-04-24T08:23:33;12.30;99.90
47162;DHT22;32921;53.256;8.198;2023-04-24T08:25:59;12.40;99.90
47162;DHT22;32921;53.256;8.198;2023-04-24T08:28:24;12.20;99.90
47162;DHT22;32921;53.256;8.198;2023-04-24T08:30:50;12.20;99.90
47162;DHT22;32921;53.256;8.198;2023-04-24T08:33:21;12.20;99.90
47162;DHT22;32921;53.256;8.198;2023-04-24T08:35:47;12.40;99.90
47162;DHT22;32921;53.256;8.198;2023-04-24T08:38:13;12.40;99.90
47162;DHT22;32921;53.256;8.198;2023-04-24T08:40:38;12.40;99.90
47162;DHT22;32921;53.256;8.198;2023-04-24T08:43:05;12.40;99.90
47162;DHT22;32921;53.256;8.198;2023-04-24T08:45:30;12.20;99.90
47162;DHT22;32921;53.256;8.198;2023-04-24T08:47:58;12.20;99.90
47162;DHT22;32921;53.256;8.198;2023-04-24T08:50:25;12.10;99.90
47162;DHT22;32921;53.256;8.198;2023-04-24T08:52:51;11.90;99.90
47162;DHT22;32921;53.256;8.198;2023-04-24T08:55:19;11.70;99.90
47162;DHT22;32921;53.256;8.198;2023-04-24T08:57:50;11.60;99.90
47162;DHT22;32921;53.256;8.198;2023-04-24T09:00:16;11.60;99.90
47162;DHT22;32921;53.256;8.198;2023-04-24T09:02:42;11.50;99.90
47162;DHT22;32921;53.256;8.198;2023-04-24T09:05:12;11.50;99.90
47162;DHT22;32921;53.256;8.198;2023-04-24T09:07:39;11.50;99.90
47162;DHT22;32921;53.256;8.198;2023-04-24T09:10:07;11.50;99.90
47162;DHT22;32921;53.256;8.198;2023-04-24T09:12:34;11.50;99.90
47162;DHT22;32921;53.256;8.198;2023-04-24T09:15:00;11.60;99.90
47162;DHT22;32921;53.256;8.198;2023-04-24T09:17:27;11.50;99.90
47162;DHT22;32921;53.256;8.198;2023-04-24T09:19:53;11.30;99.90
47162;DHT22;32921;53.256;8.198;2023-04-24T09:22:20;11.20;99.90
47162;DHT22;32921;53.256;8.198;2023-04-24T09:24:46;11.20;99.90
47162;DHT22;32921;53.256;8.198;2023-04-24T09:27:12;11.10;99.90
47162;DHT22;32921;53.256;8.198;2023-04-24T09:29:38;11.00;99.90
47162;DHT22;32921;53.256;8.198;2023-04-24T09:32:21;11.10;99.90
47162;DHT22;32921;53.256;8.198;2023-04-24T09:34:47;11.00;99.90
47162;DHT22;32921;53.256;8.198;2023-04-24T09:37:27;10.90;99.90
47162;DHT22;32921;53.256;8.198;2023-04-24T09:40:15;10.80;99.90
47162;DHT22;32921;53.256;8.198;2023-04-24T09:42:51;10.90;99.90
47162;DHT22;32921;53.256;8.198;2023-04-24T09:45:17;11.00;99.90
47162;DHT22;32921;53.256;8.198;2023-04-24T09:47:43;10.90;99.90
47162;DHT22;32921;53.256;8.198;2023-04-24T09:50:12;10.70;99.90
47162;DHT22;32921;53.256;8.198;2023-04-24T09:52:46;10.80;99.90
47162;DHT22;32921;53.256;8.198;2023-04-24T09:55:18;10.80;99.90
47162;DHT22;32921;53.256;8.198;2023-04-24T09:57:50;10.90;99.90
47162;DHT22;32921;53.256;8.198;2023-04-24T10:00:21;10.80;99.90
47162;DHT22;32921;53.256;8.198;2023-04-24T10:02:50;10.80;99.90
47162;DHT22;32921;53.256;8.198;2023-04-24T10:05:16;10.70;99.90
47162;DHT22;32921;53.256;8.198;2023-04-24T10:07:43;10.80;99.90
47162;DHT22;32921;53.256;8.198;2023-04-24T10:10:09;10.70;99.90
47162;DHT22;32921;53.256;8.198;2023-04-24T10:12:36;10.70;99.90
47162;DHT22;32921;53.256;8.198;2023-04-24T10:15:02;10.60;99.90
47162;DHT22;32921;53.256;8.198;2023-04-24T10:17:29;10.60;99.90
47162;DHT22;32921;53.256;8.198;2023-04-24T10:19:55;10.80;99.90
47162;DHT22;32921;53.256;8.198;2023-04-24T10:22:21;10.90;99.90
47162;DHT22;32921;53.256;8.198;2023-04-24T10:24:49;11.00;99.90
47162;DHT22;32921;53.256;8.198;2023-04-24T10:27:16;11.00;99.90
47162;DHT22;32921;53.256;8.198;2023-04-24T10:29:43;10.90;99.90
47162;DHT22;32921;53.256;8.198;2023-04-24T10:32:09;10.90;99.90
47162;DHT22;32921;53.256;8.198;2023-04-24T10:34:35;10.80;99.90
47162;DHT22;32921;53.256;8.198;2023-04-24T10:37:02;10.90;99.90
47162;DHT22;32921;53.256;8.198;2023-04-24T10:39:28;10.90;99.90
47162;DHT22;32921;53.256;8.198;2023-04-24T10:41:54;10.70;99.90
47162;DHT22;32921;53.256;8.198;2023-04-24T10:44:24;10.80;99.90
47162;DHT22;32921;53.256;8.198;2023-04-24T10:46:54;10.70;99.90
47162;DHT22;32921;53.256;8.198;2023-04-24T10:49:30;10.70;99.90
47162;DHT22;32921;53.256;8.198;2023-04-24T10:52:04;10.70;99.90
47162;DHT22;32921;53.256;8.198;2023-04-24T10:59:47;10.40;99.90
47162;DHT22;32921;53.256;8.198;2023-04-24T11:02:17;10.40;99.90
47162;DHT22;32921;53.256;8.198;2023-04-24T11:04:44;10.20;99.90
47162;DHT22;32921;53.256;8.198;2023-04-24T11:07:11;10.00;99.90
47162;DHT22;32921;53.256;8.198;2023-04-24T11:09:37;10.00;99.90
47162;DHT22;32921;53.256;8.198;2023-04-24T11:12:09;10.00;99.90
47162;DHT22;32921;53.256;8.198;2023-04-24T11:17:35;10.10;99.90
47162;DHT22;32921;53.256;8.198;2023-04-24T11:20:10;10.00;99.90
47162;DHT22;32921;53.256;8.198;2023-04-24T11:22:38;10.00;99.90
47162;DHT22;32921;53.256;8.198;2023-04-24T11:25:06;10.00;99.90
47162;DHT22;32921;53.256;8.198;2023-04-24T11:27:42;10.00;99.90
47162;DHT22;32921;53.256;8.198;2023-04-24T11:30:09;10.00;99.90
47162;DHT22;32921;53.256;8.198;2023-04-24T11:32:42;10.00;99.90
47162;DHT22;32921;53.256;8.198;2023-04-24T11:35:15;10.00;99.90
47162;DHT22;32921;53.256;8.198;2023-04-24T11:37:52;9.70;99.90
47162;DHT22;32921;53.256;8.198;2023-04-24T11:40:21;9.60;99.90
47162;DHT22;32921;53.256;8.198;2023-04-24T11:42:49;9.60;99.90
47162;DHT22;32921;53.256;8.198;2023-04-24T11:45:21;9.60;99.90
47162;DHT22;32921;53.256;8.198;2023-04-24T11:47:47;9.80;99.90
47162;DHT22;32921;53.256;8.198;2023-04-24T11:50:15;9.90;99.90
47162;DHT22;32921;53.256;8.198;2023-04-24T11:52:43;9.90;99.90
47162;DHT22;32921;53.256;8.198;2023-04-24T11:55:23;9.90;99.90
47162;DHT22;32921;53.256;8.198;2023-04-24T11:57:54;9.70;99.90
47162;DHT22;32921;53.256;8.198;2023-04-24T12:00:23;9.60;99.90
47162;DHT22;32921;53.256;8.198;2023-04-24T12:02:50;9.70;99.90
47162;DHT22;32921;53.256;8.198;2023-04-24T12:05:27;9.70;99.90
47162;DHT22;32921;53.256;8.198;2023-04-24T12:07:53;9.70;99.90
47162;DHT22;32921;53.256;8.198;2023-04-24T12:10:26;9.60;99.90
47162;DHT22;32921;53.256;8.198;2023-04-24T12:12:53;9.70;99.90
47162;DHT22;32921;53.256;8.198;2023-04-24T12:15:20;9.60;99.90
47162;DHT22;32921;53.256;8.198;2023-04-24T12:17:46;9.60;99.90
47162;DHT22;32921;53.256;8.198;2023-04-24T12:20:13;9.50;99.90
47162;DHT22;32921;53.256;8.198;2023-04-24T12:22:52;9.30;99.90
47162;DHT22;32921;53.256;8.198;2023-04-24T12:25:31;9.20;99.90
47162;DHT22;32921;53.256;8.198;2023-04-24T12:28:17;9.10;99.90
47162;DHT22;32921;53.256;8.198;2023-04-24T12:30:47;8.90;99.90
47162;DHT22;32921;53.256;8.198;2023-04-24T12:33:18;8.90;99.90
47162;DHT22;32921;53.256;8.198;2023-04-24T12:35:43;8.80;99.90
47162;DHT22;32921;53.256;8.198;2023-04-24T12:38:12;8.80;99.90
47162;DHT22;32921;53.256;8.198;2023-04-24T12:40:38;8.80;99.90
47162;DHT22;32921;53.256;8.198;2023-04-24T12:43:14;8.70;99.90
47162;DHT22;32921;53.256;8.198;2023-04-24T12:45:40;8.60;99.90
47162;DHT22;32921;53.256;8.198;2023-04-24T12:48:05;8.60;99.90
47162;DHT22;32921;53.256;8.198;2023-04-24T12:50:31;8.60;99.90
47162;DHT22;32921;53.256;8.198;2023-04-24T12:52:56;8.60;99.90
47162;DHT22;32921;53.256;8.198;2023-04-24T12:55:22;8.60;99.90
47162;DHT22;32921;53.256;8.198;2023-04-24T12:57:47;8.50;99.90
47162;DHT22;32921;53.256;8.198;2023-04-24T13:00:14;8.50;99.90
47162;DHT22;32921;53.256;8.198;2023-04-24T13:02:39;8.50;99.90
47162;DHT22;32921;53.256;8.198;2023-04-24T13:05:05;8.40;99.90
47162;DHT22;32921;53.256;8.198;2023-04-24T13:07:31;8.40;99.90
47162;DHT22;32921;53.256;8.198;2023-04-24T13:09:56;8.50;99.90
47162;DHT22;32921;53.256;8.198;2023-04-24T13:12:25;8.50;99.90
47162;DHT22;32921;53.256;8.198;2023-04-24T13:14:51;8.60;99.90
47162;DHT22;32921;53.256;8.198;2023-04-24T13:17:17;8.60;99.90
47162;DHT22;32921;53.256;8.198;2023-04-24T13:19:44;8.70;99.90
47162;DHT22;32921;53.256;8.198;2023-04-24T13:22:11;8.70;99.90
47162;DHT22;32921;53.256;8.198;2023-04-24T13:24:38;8.60;99.90
47162;DHT22;32921;53.256;8.198;2023-04-24T13:27:06;8.60;99.90
47162;DHT22;32921;53.256;8.198;2023-04-24T13:29:31;8.60;99.90
47162;DHT22;32921;53.256;8.198;2023-04-24T13:31:57;8.60;99.90
47162;DHT22;32921;53.256;8.198;2023-04-24T13:34:24;8.50;99.90
47162;DHT22;32921;53.256;8.198;2023-04-24T13:36:54;8.40;99.90
47162;DHT22;32921;53.256;8.198;2023-04-24T13:39:20;8.40;99.90
47162;DHT22;32921;53.256;8.198;2023-04-24T13:41:46;8.40;99.90
47162;DHT22;32921;53.256;8.198;2023-04-24T13:44:13;8.40;99.90
47162;DHT22;32921;53.256;8.198;2023-04-24T13:46:39;8.40;99.90
47162;DHT22;32921;53.256;8.198;2023-04-24T13:49:05;8.50;99.90
47162;DHT22;32921;53.256;8.198;2023-04-24T13:51:30;8.40;99.90
47162;DHT22;32921;53.256;8.198;2023-04-24T13:53:56;8.40;99.90
47162;DHT22;32921;53.256;8.198;2023-04-24T13:56:22;8.40;99.90
47162;DHT22;32921;53.256;8.198;2023-04-24T13:58:48;8.40;99.90
47162;DHT22;32921;53.256;8.198;2023-04-24T14:01:14;8.40;99.90
47162;DHT22;32921;53.256;8.198;2023-04-24T14:03:41;8.40;99.90
47162;DHT22;32921;53.256;8.198;2023-04-24T14:06:07;8.40;99.90
47162;DHT22;32921;53.256;8.198;2023-04-24T14:08:32;8.50;99.90
47162;DHT22;32921;53.256;8.198;2023-04-24T14:10:58;8.50;99.90
47162;DHT22;32921;53.256;8.198;2023-04-24T14:13:24;8.50;99.90
47162;DHT22;32921;53.256;8.198;2023-04-24T14:15:50;8.50;99.90
47162;DHT22;32921;53.256;8.198;2023-04-24T14:18:16;8.50;99.90
47162;DHT22;32921;53.256;8.198;2023-04-24T14:20:42;8.60;99.90
47162;DHT22;32921;53.256;8.198;2023-04-24T14:23:08;8.60;99.90
47162;DHT22;32921;53.256;8.198;2023-04-24T14:25:33;8.60;99.90
47162;DHT22;32921;53.256;8.198;2023-04-24T14:27:59;8.60;99.90
47162;DHT22;32921;53.256;8.198;2023-04-24T14:30:25;8.60;99.90
47162;DHT22;32921;53.256;8.198;2023-04-24T14:32:50;8.50;99.90
47162;DHT22;32921;53.256;8.198;2023-04-24T14:35:16;8.70;99.90
47162;DHT22;32921;53.256;8.198;2023-04-24T14:37:42;8.70;99.90
47162;DHT22;32921;53.256;8.198;2023-04-24T14:40:08;8.70;99.90
47162;DHT22;32921;53.256;8.198;2023-04-24T14:42:34;8.70;99.90
47162;DHT22;32921;53.256;8.198;2023-04-24T14:45:01;8.60;99.90
47162;DHT22;32921;53.256;8.198;2023-04-24T14:47:27;8.80;99.90
47162;DHT22;32921;53.256;8.198;2023-04-24T14:49:53;8.80;99.90
47162;DHT22;32921;53.256;8.198;2023-04-24T14:52:19;8.80;99.90
47162;DHT22;32921;53.256;8.198;2023-04-24T14:54:45;8.70;99.90
47162;DHT22;32921;53.256;8.198;2023-04-24T14:57:11;8.70;99.90
47162;DHT22;32921;53.256;8.198;2023-04-24T14:59:36;8.70;99.90
47162;DHT22;32921;53.256;8.198;2023-04-24T15:02:02;8.80;99.90
47162;DHT22;32921;53.256;8.198;2023-04-24T15:04:28;8.70;99.90
47162;DHT22;32921;53.256;8.198;2023-04-24T15:06:54;8.70;99.90
47162;DHT22;32921;53.256;8.198;2023-04-24T15:09:21;8.70;99.90
47162;DHT22;32921;53.256;8.198;2023-04-24T15:11:47;8.60;99.90
47162;DHT22;32921;53.256;8.198;2023-04-24T15:14:13;8.60;99.90
47162;DHT22;32921;53.256;8.198;2023-04-24T15:16:39;8.60;99.90
47162;DHT22;32921;53.256;8.198;2023-04-24T15:19:05;8.50;99.90
47162;DHT22;32921;53.256;8.198;2023-04-24T15:21:30;8.50;99.90
47162;DHT22;32921;53.256;8.198;2023-04-24T15:23:57;8.40;99.90
47162;DHT22;32921;53.256;8.198;2023-04-24T15:26:23;8.40;99.90
47162;DHT22;32921;53.256;8.198;2023-04-24T15:28:49;8.30;99.90
47162;DHT22;32921;53.256;8.198;2023-04-24T15:31:15;8.30;99.90
47162;DHT22;32921;53.256;8.198;2023-04-24T15:33:40;8.30;99.90
47162;DHT22;32921;53.256;8.198;2023-04-24T15:36:06;8.20;99.90
47162;DHT22;32921;53.256;8.198;2023-04-24T15:38:32;8.10;99.90
47162;DHT22;32921;53.256;8.198;2023-04-24T15:40:57;8.10;99.90